KCLK/CLK METAR and TAF weather

Enter ICAO airport designator
Station Type Date Time Source
KCLK METAR 2019/08/25 18:55 UTC NOAA

KCLK 251855Z AUTO 13012G17KT 10SM CLR 28/18 A2988 RMK AO2


Station Type Date Time Source
KCLK Decoded METAR 2019/08/25 18:55 UTC NOAA

Station name not available
Aug 25, 2019 - 02:55 PM EDT / 2019.08.25 1855 UTC
Wind: from the SE (130 degrees) at 14 MPH (12 KT) gusting to 20 MPH (17 KT):0
Visibility: 10 mile(s):0
Sky conditions: clear
Temperature: 82 F (28 C)
Dew Point: 64 F (18 C)
Relative Humidity: 54%
Pressure (altimeter): 29.88 in. Hg (1011 hPa)
ob: KCLK 251855Z AUTO 13012G17KT 10SM CLR 28/18 A2988 RMK AO2
cycle: 19

Station Type Date Time Source
KCLK TAF UTC NOAA

Error!

Example: see airport list